Overview Statistics Trail Chart Weather Telemetry Raw packets
 

This is the latest recevied weather packets stored in our database for station/object DG1GMY-10. If no packets are shown the sender has not sent any weather packets the latest 10 day(s).

<< 4 5 6 7 8 9 10 >>
Time Temp. Humidity Pressure Rain* Wind** Luminosity Snow
1788089797 25.56° C 67% 1018 hPa - - - -
1788086197 23.89° C 71% 1018.4 hPa - - - -
1788082597 24.44° C 70% 1018.4 hPa - - - -
1788078997 23.33° C 81% 1018.5 hPa - - - -
1788075397 21.67° C 84% 1018.3 hPa - - - -
1788071797 20° C 92% 1017.9 hPa - - - -
1788068197 19.44° C 94% 1017.5 hPa - - - -
1788064596 19.44° C 89% 1017.3 hPa - - - -
1788060996 18.89° C 88% 1017.3 hPa - - - -
1788057396 19.44° C 89% 1017.1 hPa - - - -
1788053796 20° C 89% 1017.2 hPa - - - -
1788050196 20° C 91% 1017.3 hPa - - - -
1788046596 21.11° C 66% 1017.2 hPa - - - -
1788042996 22.22° C 56% 1016.6 hPa - - - -
1788039396 22.22° C 55% 1016.5 hPa - - - -
1788035796 22.22° C 50% 1016.2 hPa - - - -
1788032196 22.22° C 50% 1016.2 hPa - - - -
1788028596 22.78° C 49% 1016.1 hPa - - - -
1788024995 26.67° C 39% 1016.1 hPa - - - -
1788021395 28.33° C 37% 1016 hPa - - - -
1788017795 35° C 27% 1016 hPa - - - -
1788014195 30° C 34% 1016.7 hPa - - - -
1788010595 26.67° C 42% 1017 hPa - - - -
1788007008 25.56° C 45% 1017.3 hPa - - - -
1788003395 25.56° C 48% 1017.6 hPa - - - -

* Rain since midnight (hover to see other rain measurements)
** Current wind speed in m/s (hover to see current wind gust speed)